Time;durP1;ratioP1;P1;durP2;ratioP2;P2;SDS_P1;SDS_P2;PMS_P1;PMS_P2;Temp;Humidity;BMP_temperature;BMP_pressure;BME280_temperature;BME280_humidity;BME280_pressure;Samples;Min_cycle;Max_cycle;Signal;HPM_P1;HPM_P2
2023/06/25 00:01:03;;;;;;;3.40;1.85;;;;;;;;;;5051977;28;20029;-67
2023/06/25 00:03:29;;;;;;;2.85;1.48;;;;;;;;;;5052227;28;20410;-67
2023/06/25 00:05:54;;;;;;;4.82;1.98;;;;;;;;;;5051499;28;20067;-68
2023/06/25 00:08:19;;;;;;;2.65;1.70;;;;;;;;;;5051340;28;20112;-67
2023/06/25 00:10:45;;;;;;;2.58;1.40;;;;;;;;;;5051608;28;20048;-67
2023/06/25 00:13:10;;;;;;;1.63;1.17;;;;;;;;;;5051521;28;20025;-67
2023/06/25 00:15:36;;;;;;;2.05;1.38;;;;;;;;;;5050984;28;20049;-68
2023/06/25 00:18:01;;;;;;;3.63;1.85;;;;;;;;;;5050882;28;20099;-68
2023/06/25 00:20:28;;;;;;;4.68;1.65;;;;;;;;;;5051459;28;20029;-68
2023/06/25 00:22:53;;;;;;;1.80;1.20;;;;;;;;;;5051221;28;20020;-68
2023/06/25 00:25:19;;;;;;;2.38;1.63;;;;;;;;;;5051285;28;20103;-68
2023/06/25 00:27:47;;;;;;;2.30;1.50;;;;;;;;;;5051218;28;20515;-68
2023/06/25 00:30:14;;;;;;;2.80;1.63;;;;;;;;;;5051299;28;20021;-68
2023/06/25 00:32:40;;;;;;;2.92;1.70;;;;;;;;;;5050866;28;20116;-68
2023/06/25 00:35:06;;;;;;;4.18;1.73;;;;;;;;;;5050939;28;20465;-69
2023/06/25 00:37:36;;;;;;;4.07;1.90;;;;;;;;;;5051181;28;20021;-70
2023/06/25 00:40:03;;;;;;;2.67;1.52;;;;;;;;;;5050567;28;20021;-69
2023/06/25 00:42:42;;;;;;;2.33;1.48;;;;;;;;;;5051142;28;20075;-70
2023/06/25 00:45:12;;;;;;;4.32;2.05;;;;;;;;;;5050901;28;20029;-68
2023/06/25 00:47:41;;;;;;;3.87;1.97;;;;;;;;;;5051047;28;20025;-68
2023/06/25 00:50:11;;;;;;;2.85;1.55;;;;;;;;;;5050785;28;20271;-70
2023/06/25 00:52:40;;;;;;;2.67;1.63;;;;;;;;;;5050722;28;20033;-68
2023/06/25 00:55:08;;;;;;;3.90;1.42;;;;;;;;;;5050787;28;20025;-71
2023/06/25 00:57:34;;;;;;;4.80;1.50;;;;;;;;;;5050926;28;20025;-69
2023/06/25 00:59:59;;;;;;;3.25;1.55;;;;;;;;;;5050640;28;20036;-68
2023/06/25 01:02:46;;;;;;;2.20;1.48;;;;;;;;;;5050708;28;20519;-67
2023/06/25 01:05:39;;;;;;;3.22;1.65;;;;;;;;;;5050519;28;20029;-68
2023/06/25 01:08:08;;;;;;;2.83;1.75;;;;;;;;;;5050348;28;20033;-67
2023/06/25 01:10:35;;;;;;;3.58;1.50;;;;;;;;;;5050301;28;20513;-70
2023/06/25 01:13:01;;;;;;;3.00;1.60;;;;;;;;;;5050526;28;20056;-68
2023/06/25 01:15:26;;;;;;;2.50;1.58;;;;;;;;;;5050306;28;20064;-68
2023/06/25 01:17:53;;;;;;;3.40;1.67;;;;;;;;;;5050533;28;20087;-68
2023/06/25 01:20:20;;;;;;;5.22;2.13;;;;;;;;;;5050157;28;20104;-69
2023/06/25 01:22:46;;;;;;;2.75;1.50;;;;;;;;;;5050304;28;20021;-67
2023/06/25 01:25:11;;;;;;;3.53;1.77;;;;;;;;;;5049766;28;20459;-68
2023/06/25 01:27:37;;;;;;;2.85;1.67;;;;;;;;;;5049927;28;20033;-68
2023/06/25 01:30:07;;;;;;;3.28;1.48;;;;;;;;;;5049992;28;20033;-68
2023/06/25 01:32:33;;;;;;;1.67;1.27;;;;;;;;;;5050009;28;20122;-68
2023/06/25 01:34:59;;;;;;;2.67;1.50;;;;;;;;;;5049873;28;20108;-68
2023/06/25 01:37:24;;;;;;;3.35;1.60;;;;;;;;;;5049807;28;20100;-67
2023/06/25 01:39:54;;;;;;;3.20;1.90;;;;;;;;;;5049832;28;20068;-67
2023/06/25 01:42:20;;;;;;;;;;;;;;;;;;5050458;28;20424;-67
2023/06/25 01:44:45;;;;;;;2.67;1.50;;;;;;;;;;5049700;28;20430;-67
2023/06/25 01:47:11;;;;;;;5.35;1.77;;;;;;;;;;5049653;28;20260;-68
2023/06/25 01:49:36;;;;;;;2.33;1.30;;;;;;;;;;5049625;28;20082;-68
2023/06/25 01:52:02;;;;;;;3.38;1.70;;;;;;;;;;5048805;28;20040;-67
2023/06/25 01:54:28;;;;;;;2.50;1.38;;;;;;;;;;5049670;28;20025;-68
2023/06/25 01:56:54;;;;;;;6.10;1.73;;;;;;;;;;5049699;28;20029;-67
2023/06/25 01:59:20;;;;;;;2.50;1.60;;;;;;;;;;5049338;28;20027;-67
2023/06/25 02:01:45;;;;;;;2.28;1.40;;;;;;;;;;5049571;28;20068;-68
2023/06/25 02:04:11;;;;;;;2.70;1.50;;;;;;;;;;5049101;28;20017;-68
2023/06/25 02:06:36;;;;;;;2.50;1.50;;;;;;;;;;5049502;28;20017;-67
2023/06/25 02:09:02;;;;;;;3.10;1.60;;;;;;;;;;5049206;28;20025;-68
2023/06/25 02:11:27;;;;;;;4.35;1.67;;;;;;;;;;5049410;28;20047;-68
2023/06/25 02:13:53;;;;;;;3.17;1.80;;;;;;;;;;5049361;28;20044;-68
2023/06/25 02:16:18;;;;;;;4.13;1.65;;;;;;;;;;5049016;28;20451;-68
2023/06/25 02:18:44;;;;;;;2.63;1.67;;;;;;;;;;5049292;28;20033;-67
2023/06/25 02:21:09;;;;;;;5.05;1.70;;;;;;;;;;5049041;28;20016;-67
2023/06/25 02:23:34;;;;;;;3.03;1.60;;;;;;;;;;5049105;28;20021;-67
2023/06/25 02:26:00;;;;;;;2.78;1.60;;;;;;;;;;5049152;28;20025;-67
2023/06/25 02:28:25;;;;;;;2.42;1.48;;;;;;;;;;5049186;28;20052;-67
2023/06/25 02:30:51;;;;;;;2.58;1.30;;;;;;;;;;5048974;28;20459;-67
2023/06/25 02:33:16;;;;;;;3.33;1.73;;;;;;;;;;5048970;28;20703;-67
2023/06/25 02:35:42;;;;;;;3.58;1.60;;;;;;;;;;5048631;28;20036;-67
2023/06/25 02:38:07;;;;;;;3.92;1.67;;;;;;;;;;5048615;28;20024;-68
2023/06/25 02:40:33;;;;;;;2.95;1.73;;;;;;;;;;5048790;28;20369;-68
2023/06/25 02:42:58;;;;;;;3.80;1.75;;;;;;;;;;5049155;28;20056;-68
2023/06/25 02:45:24;;;;;;;2.40;1.55;;;;;;;;;;5049101;28;20021;-68
2023/06/25 02:47:49;;;;;;;2.33;1.52;;;;;;;;;;5047537;28;20561;-69
2023/06/25 02:50:15;;;;;;;5.80;1.70;;;;;;;;;;5048727;28;20090;-68
2023/06/25 02:52:41;;;;;;;2.70;1.60;;;;;;;;;;5048664;28;20441;-68
2023/06/25 02:55:07;;;;;;;1.98;1.33;;;;;;;;;;5048716;28;20072;-68
2023/06/25 02:57:32;;;;;;;3.03;1.48;;;;;;;;;;5048804;28;20041;-67
2023/06/25 02:59:58;;;;;;;1.90;1.25;;;;;;;;;;5048699;28;20060;-67
2023/06/25 03:02:24;;;;;;;3.17;1.65;;;;;;;;;;5049028;28;20132;-67
2023/06/25 03:04:50;;;;;;;2.65;1.67;;;;;;;;;;5051995;28;20116;-68
2023/06/25 03:07:15;;;;;;;2.95;1.65;;;;;;;;;;5052578;28;20021;-67
2023/06/25 03:09:41;;;;;;;3.90;1.70;;;;;;;;;;5052737;28;20181;-68
2023/06/25 03:12:07;;;;;;;4.18;1.83;;;;;;;;;;5052531;28;20082;-69
2023/06/25 03:14:33;;;;;;;2.30;1.50;;;;;;;;;;5052350;28;20028;-68
2023/06/25 03:16:58;;;;;;;2.92;1.70;;;;;;;;;;5052422;28;20070;-67
2023/06/25 03:19:23;;;;;;;2.50;1.38;;;;;;;;;;5052813;28;20025;-67
2023/06/25 03:21:49;;;;;;;3.50;1.90;;;;;;;;;;5052296;28;20123;-68
2023/06/25 03:24:14;;;;;;;3.22;1.90;;;;;;;;;;5052689;28;20154;-67
2023/06/25 03:26:40;;;;;;;8.13;2.05;;;;;;;;;;5052147;28;20029;-67
2023/06/25 03:29:05;;;;;;;3.10;1.85;;;;;;;;;;5052265;28;20477;-70
2023/06/25 03:31:31;;;;;;;3.08;1.65;;;;;;;;;;5051901;28;20036;-67
2023/06/25 03:33:56;;;;;;;3.65;1.80;;;;;;;;;;5052366;28;20025;-67
2023/06/25 03:36:22;;;;;;;2.65;1.70;;;;;;;;;;5052188;28;20124;-70
2023/06/25 03:38:47;;;;;;;3.85;1.70;;;;;;;;;;5054138;28;20049;-68
2023/06/25 03:41:13;;;;;;;2.83;1.73;;;;;;;;;;5052116;28;20028;-68
2023/06/25 03:43:38;;;;;;;3.10;1.70;;;;;;;;;;5052158;28;20025;-70
2023/06/25 03:46:04;;;;;;;6.07;1.92;;;;;;;;;;5051853;28;20039;-71
2023/06/25 03:48:29;;;;;;;3.30;1.80;;;;;;;;;;5051912;28;20668;-67
2023/06/25 03:50:54;;;;;;;2.40;1.63;;;;;;;;;;5051612;28;20060;-67
2023/06/25 03:53:20;;;;;;;2.47;1.58;;;;;;;;;;5052011;28;20025;-67
2023/06/25 03:55:45;;;;;;;2.33;1.45;;;;;;;;;;5051969;28;20025;-67
2023/06/25 03:58:11;;;;;;;2.83;1.58;;;;;;;;;;5051732;28;20055;-67
2023/06/25 04:00:36;;;;;;;5.60;1.67;;;;;;;;;;5051830;28;20039;-67
2023/06/25 04:03:02;;;;;;;3.22;1.80;;;;;;;;;;5051688;28;20538;-67
2023/06/25 04:05:27;;;;;;;2.67;1.60;;;;;;;;;;5051552;28;20028;-67
2023/06/25 04:07:53;;;;;;;3.72;1.70;;;;;;;;;;5051444;28;20032;-67
2023/06/25 04:10:18;;;;;;;3.40;1.65;;;;;;;;;;5051649;28;20027;-68
2023/06/25 04:12:43;;;;;;;4.72;1.85;;;;;;;;;;5051401;28;20040;-67
2023/06/25 04:15:09;;;;;;;2.80;1.70;;;;;;;;;;5050974;28;20040;-68
2023/06/25 04:17:35;;;;;;;3.10;1.80;;;;;;;;;;5051474;28;20028;-67
2023/06/25 04:20:00;;;;;;;2.58;1.60;;;;;;;;;;5051590;28;20025;-69
2023/06/25 04:22:25;;;;;;;3.75;1.75;;;;;;;;;;5051203;28;20024;-67
2023/06/25 04:24:51;;;;;;;2.10;1.40;;;;;;;;;;5051399;28;20025;-69
2023/06/25 04:27:16;;;;;;;4.50;1.65;;;;;;;;;;5051117;28;20382;-67
2023/06/25 04:29:42;;;;;;;3.17;1.90;;;;;;;;;;5051526;28;20074;-67
2023/06/25 04:32:07;;;;;;;2.78;1.60;;;;;;;;;;5051265;28;20045;-68
2023/06/25 04:34:33;;;;;;;3.78;2.13;;;;;;;;;;5051371;28;20028;-67
2023/06/25 04:36:58;;;;;;;2.88;1.52;;;;;;;;;;5050832;28;20167;-68
2023/06/25 04:39:23;;;;;;;3.08;1.67;;;;;;;;;;5050891;28;20029;-68
2023/06/25 04:41:49;;;;;;;3.35;1.80;;;;;;;;;;5051064;28;20408;-68
2023/06/25 04:44:14;;;;;;;2.95;1.73;;;;;;;;;;5051117;28;20589;-68
2023/06/25 04:46:40;;;;;;;3.35;1.90;;;;;;;;;;5050872;28;20082;-68
2023/06/25 04:49:05;;;;;;;4.25;1.67;;;;;;;;;;5050789;28;20032;-69
2023/06/25 04:51:30;;;;;;;3.83;1.73;;;;;;;;;;5050893;28;20812;-70
2023/06/25 04:53:56;;;;;;;2.70;1.60;;;;;;;;;;5050900;28;20087;-68
2023/06/25 04:56:21;;;;;;;2.95;1.67;;;;;;;;;;5050598;28;20100;-68
2023/06/25 04:58:47;;;;;;;2.35;1.42;;;;;;;;;;5050672;28;20033;-68
2023/06/25 05:01:12;;;;;;;2.22;1.40;;;;;;;;;;5050486;28;20408;-68
2023/06/25 05:03:38;;;;;;;2.33;1.55;;;;;;;;;;5050673;28;20017;-68
2023/06/25 05:06:04;;;;;;;3.25;1.75;;;;;;;;;;5050634;28;20028;-69
2023/06/25 05:08:29;;;;;;;3.63;1.73;;;;;;;;;;5050373;28;20108;-68
2023/06/25 05:10:54;;;;;;;2.80;1.77;;;;;;;;;;5050558;28;20082;-69
2023/06/25 05:13:20;;;;;;;3.30;1.65;;;;;;;;;;5050446;28;20104;-68
2023/06/25 05:15:45;;;;;;;3.20;1.50;;;;;;;;;;5050256;28;20052;-68
2023/06/25 05:18:11;;;;;;;3.20;2.00;;;;;;;;;;5050071;28;20043;-70
2023/06/25 05:20:38;;;;;;;2.80;1.70;;;;;;;;;;5050226;28;20090;-70
2023/06/25 05:23:04;;;;;;;2.75;1.70;;;;;;;;;;5050094;28;20470;-68
2023/06/25 05:25:31;;;;;;;2.53;1.40;;;;;;;;;;5050445;28;20025;-68
2023/06/25 05:27:57;;;;;;;2.58;1.70;;;;;;;;;;5049958;28;20104;-68
2023/06/25 05:30:22;;;;;;;3.33;1.95;;;;;;;;;;5050278;28;20425;-68
2023/06/25 05:32:47;;;;;;;3.88;1.50;;;;;;;;;;5049674;28;20045;-67
2023/06/25 05:35:13;;;;;;;3.03;1.77;;;;;;;;;;5049853;28;20025;-68
2023/06/25 05:37:38;;;;;;;2.08;1.38;;;;;;;;;;5049651;28;20024;-68
2023/06/25 05:40:04;;;;;;;3.17;1.35;;;;;;;;;;5049905;28;20043;-68
2023/06/25 05:42:30;;;;;;;3.58;2.13;;;;;;;;;;5049861;28;20062;-68
2023/06/25 05:44:55;;;;;;;5.63;1.95;;;;;;;;;;5050116;28;20374;-68
2023/06/25 05:47:21;;;;;;;3.75;1.90;;;;;;;;;;5049507;28;20056;-68
2023/06/25 05:49:46;;;;;;;2.75;1.83;;;;;;;;;;5049638;28;20425;-68
2023/06/25 05:52:11;;;;;;;2.88;1.67;;;;;;;;;;5049262;28;20107;-68
2023/06/25 05:54:37;;;;;;;2.63;1.73;;;;;;;;;;5049634;28;20172;-69
2023/06/25 05:57:02;;;;;;;3.03;1.70;;;;;;;;;;5049481;28;20019;-69
2023/06/25 05:59:28;;;;;;;2.78;1.75;;;;;;;;;;5049726;28;20108;-68
2023/06/25 06:01:53;;;;;;;3.72;1.90;;;;;;;;;;5049454;28;20032;-68
2023/06/25 06:04:19;;;;;;;3.97;2.30;;;;;;;;;;5049408;28;20017;-71
2023/06/25 06:06:44;;;;;;;2.88;1.83;;;;;;;;;;5049190;28;20088;-69
2023/06/25 06:09:09;;;;;;;4.45;1.65;;;;;;;;;;5049349;28;20028;-68
2023/06/25 06:11:35;;;;;;;3.40;1.60;;;;;;;;;;5049261;28;20048;-68
2023/06/25 06:14:00;;;;;;;2.95;1.77;;;;;;;;;;5049159;28;20024;-68
2023/06/25 06:16:26;;;;;;;2.85;1.85;;;;;;;;;;5049390;28;20017;-70
2023/06/25 06:18:51;;;;;;;2.53;1.55;;;;;;;;;;5049071;28;20037;-68
2023/06/25 06:21:16;;;;;;;3.47;1.90;;;;;;;;;;5049604;28;20021;-69
2023/06/25 06:23:42;;;;;;;2.20;1.40;;;;;;;;;;5049106;28;20078;-68
2023/06/25 06:26:07;;;;;;;6.43;1.67;;;;;;;;;;5049056;28;20479;-68
2023/06/25 06:28:33;;;;;;;3.53;1.70;;;;;;;;;;5048893;28;20111;-68
2023/06/25 06:30:58;;;;;;;3.17;1.52;;;;;;;;;;5048675;28;20414;-68
2023/06/25 06:33:23;;;;;;;4.20;2.00;;;;;;;;;;5048735;28;20037;-71
2023/06/25 06:35:49;;;;;;;4.60;1.80;;;;;;;;;;5049463;28;20104;-71
2023/06/25 06:38:14;;;;;;;2.85;1.60;;;;;;;;;;5048547;28;20436;-68
2023/06/25 06:40:40;;;;;;;2.90;1.50;;;;;;;;;;5049088;28;20409;-68
2023/06/25 06:43:05;;;;;;;2.97;1.73;;;;;;;;;;5048849;28;20028;-67
2023/06/25 06:45:30;;;;;;;3.53;1.70;;;;;;;;;;5048794;28;20077;-68
2023/06/25 06:47:56;;;;;;;2.67;1.60;;;;;;;;;;5048595;28;20106;-66
2023/06/25 06:50:21;;;;;;;2.90;1.70;;;;;;;;;;5048892;28;20025;-66
2023/06/25 06:52:47;;;;;;;2.75;1.42;;;;;;;;;;5048647;28;20028;-67
2023/06/25 06:55:12;;;;;;;2.85;1.52;;;;;;;;;;5049034;28;20044;-67
2023/06/25 06:57:37;;;;;;;3.45;1.73;;;;;;;;;;5048747;28;20036;-68
2023/06/25 07:00:04;;;;;;;4.05;1.95;;;;;;;;;;5048657;28;20083;-67
2023/06/25 07:02:29;;;;;;;2.72;1.65;;;;;;;;;;5047325;28;20033;-68
2023/06/25 07:04:55;;;;;;;3.28;1.70;;;;;;;;;;5056239;28;20051;-67
2023/06/25 07:07:21;;;;;;;3.65;1.98;;;;;;;;;;5063059;28;20063;-67
2023/06/25 07:09:51;;;;;;;2.17;1.45;;;;;;;;;;5068123;28;20024;-69
2023/06/25 07:12:17;;;;;;;2.58;1.55;;;;;;;;;;5062232;28;20036;-70
2023/06/25 07:14:43;;;;;;;3.35;1.85;;;;;;;;;;5068621;28;20557;-66
2023/06/25 07:17:08;;;;;;;3.45;1.88;;;;;;;;;;5068374;28;20017;-67
2023/06/25 07:19:33;;;;;;;2.85;1.60;;;;;;;;;;5070896;28;20170;-64
2023/06/25 07:21:59;;;;;;;2.58;1.38;;;;;;;;;;5063864;28;20092;-64
2023/06/25 07:24:24;;;;;;;2.65;1.40;;;;;;;;;;5067067;28;20490;-64
2023/06/25 07:26:49;;;;;;;3.42;1.73;;;;;;;;;;5068624;28;20056;-64
2023/06/25 07:29:15;;;;;;;5.18;3.45;;;;;;;;;;5068064;28;20020;-64
2023/06/25 07:31:40;;;;;;;3.83;2.03;;;;;;;;;;5068182;28;20044;-63
2023/06/25 07:34:06;;;;;;;2.42;1.52;;;;;;;;;;5068179;28;20024;-64
2023/06/25 07:36:31;;;;;;;2.30;1.50;;;;;;;;;;5068292;28;20035;-64
2023/06/25 07:38:58;;;;;;;2.30;1.50;;;;;;;;;;5055818;28;20449;-65
2023/06/25 07:41:23;;;;;;;3.40;1.70;;;;;;;;;;5068368;28;20033;-64
2023/06/25 07:43:49;;;;;;;4.30;1.83;;;;;;;;;;5068177;28;20044;-65
2023/06/25 07:46:14;;;;;;;2.72;1.60;;;;;;;;;;5059195;28;20050;-68
2023/06/25 07:48:39;;;;;;;3.47;1.95;;;;;;;;;;5054992;28;20026;-65
2023/06/25 07:51:05;;;;;;;2.40;1.70;;;;;;;;;;5057211;28;20048;-64
2023/06/25 07:53:30;;;;;;;2.78;1.65;;;;;;;;;;5058249;28;20094;-69
2023/06/25 07:55:56;;;;;;;3.20;1.60;;;;;;;;;;5054055;28;20120;-64
2023/06/25 07:58:21;;;;;;;2.33;1.48;;;;;;;;;;5071397;28;20503;-64
2023/06/25 08:00:46;;;;;;;3.33;1.60;;;;;;;;;;5070461;28;20040;-64
2023/06/25 08:03:12;;;;;;;2.67;1.40;;;;;;;;;;5064740;28;20539;-65
2023/06/25 08:05:37;;;;;;;2.35;1.40;;;;;;;;;;5064435;28;20045;-64
2023/06/25 08:08:03;;;;;;;3.30;1.83;;;;;;;;;;5058023;28;20475;-67
2023/06/25 08:10:28;;;;;;;3.58;1.58;;;;;;;;;;5054674;28;20029;-65
2023/06/25 08:12:54;;;;;;;2.90;1.70;;;;;;;;;;5071237;28;20031;-64
2023/06/25 08:15:20;;;;;;;2.58;1.65;;;;;;;;;;5060697;28;20056;-65
2023/06/25 08:17:47;;;;;;;2.83;1.60;;;;;;;;;;5071387;28;20082;-69
2023/06/25 08:20:12;;;;;;;3.05;1.60;;;;;;;;;;5064665;28;20053;-66
2023/06/25 08:22:37;;;;;;;3.03;1.70;;;;;;;;;;5065563;28;20064;-65
2023/06/25 08:25:07;;;;;;;3.40;1.90;;;;;;;;;;5053039;28;20065;-66
2023/06/25 08:27:32;;;;;;;3.10;1.80;;;;;;;;;;5056671;28;20157;-64
2023/06/25 08:29:58;;;;;;;3.30;1.50;;;;;;;;;;5057205;28;20119;-65
2023/06/25 08:32:23;;;;;;;2.95;1.58;;;;;;;;;;5073742;28;20143;-69
2023/06/25 08:34:49;;;;;;;2.95;1.60;;;;;;;;;;5070498;28;20066;-65
2023/06/25 08:37:14;;;;;;;3.85;1.52;;;;;;;;;;5073362;28;20112;-66
2023/06/25 08:39:39;;;;;;;2.72;1.67;;;;;;;;;;5070830;28;20099;-66
2023/06/25 08:42:05;;;;;;;2.80;1.77;;;;;;;;;;5067273;28;20034;-66
2023/06/25 08:44:31;;;;;;;2.78;1.83;;;;;;;;;;5058322;28;20480;-65
2023/06/25 08:46:58;;;;;;;2.97;1.88;;;;;;;;;;5068693;28;20025;-66
2023/06/25 08:49:28;;;;;;;3.05;1.63;;;;;;;;;;5071704;28;20028;-66
2023/06/25 08:51:55;;;;;;;;;;;;;;;;;;5069867;28;20020;-65
2023/06/25 08:54:20;;;;;;;2.72;1.50;;;;;;;;;;5070625;28;19919;-66
2023/06/25 08:56:46;;;;;;;2.15;1.30;;;;;;;;;;5069835;28;20028;-66
2023/06/25 08:59:11;;;;;;;3.22;1.73;;;;;;;;;;5077988;28;20411;-65
2023/06/25 09:01:36;;;;;;;3.15;1.60;;;;;;;;;;5077968;28;20087;-66
2023/06/25 09:04:02;;;;;;;2.92;1.55;;;;;;;;;;5074596;28;20035;-66
2023/06/25 09:06:27;;;;;;;5.53;1.73;;;;;;;;;;5074664;28;20426;-66
2023/06/25 09:08:53;;;;;;;4.45;1.80;;;;;;;;;;5072089;28;20043;-65
2023/06/25 09:11:18;;;;;;;2.92;1.80;;;;;;;;;;5076133;28;20028;-64
2023/06/25 09:13:44;;;;;;;3.35;1.60;;;;;;;;;;5048236;28;20419;-69
2023/06/25 09:16:10;;;;;;;3.95;1.80;;;;;;;;;;5029242;28;20044;-65
2023/06/25 09:18:36;;;;;;;2.50;1.58;;;;;;;;;;5045012;28;20401;-66
2023/06/25 09:21:03;;;;;;;2.83;1.48;;;;;;;;;;5048771;28;20068;-70
2023/06/25 09:23:29;;;;;;;3.08;1.90;;;;;;;;;;5048455;28;20052;-71
2023/06/25 09:25:54;;;;;;;2.95;1.80;;;;;;;;;;5052642;28;20098;-70
2023/06/25 09:28:19;;;;;;;2.55;1.75;;;;;;;;;;5049279;28;20025;-74
2023/06/25 09:30:46;;;;;;;2.47;1.73;;;;;;;;;;5052852;28;20029;-66
2023/06/25 09:33:12;;;;;;;3.28;1.60;;;;;;;;;;5050191;28;20128;-65
2023/06/25 09:35:38;;;;;;;3.03;1.60;;;;;;;;;;5050173;28;20092;-65
2023/06/25 09:38:04;;;;;;;3.28;1.73;;;;;;;;;;5049432;28;20021;-66
2023/06/25 09:40:30;;;;;;;2.45;1.63;;;;;;;;;;5048899;28;20107;-65
2023/06/25 09:42:57;;;;;;;3.17;1.80;;;;;;;;;;5049037;28;20113;-65
2023/06/25 09:45:24;;;;;;;2.90;1.55;;;;;;;;;;5048294;28;20402;-64
2023/06/25 09:47:51;;;;;;;2.30;1.60;;;;;;;;;;5048997;28;20029;-64
2023/06/25 09:50:24;;;;;;;2.15;1.45;;;;;;;;;;5048651;28;20492;-67
2023/06/25 09:53:02;;;;;;;3.53;1.77;;;;;;;;;;5049466;28;20041;-66
2023/06/25 09:55:29;;;;;;;2.92;1.70;;;;;;;;;;5049212;28;20021;-68
2023/06/25 09:57:55;;;;;;;2.58;1.73;;;;;;;;;;5049030;28;20053;-65
2023/06/25 10:00:22;;;;;;;3.53;1.85;;;;;;;;;;5049172;28;20031;-65
2023/06/25 10:02:49;;;;;;;2.80;1.60;;;;;;;;;;5049730;28;20039;-64
2023/06/25 10:05:14;;;;;;;3.45;1.88;;;;;;;;;;5049537;28;20602;-64
2023/06/25 10:07:41;;;;;;;2.75;1.50;;;;;;;;;;5049697;28;20024;-65
2023/06/25 10:10:07;;;;;;;2.45;1.65;;;;;;;;;;5049313;28;20033;-65
2023/06/25 10:12:38;;;;;;;2.75;1.50;;;;;;;;;;5049150;28;20036;-65
2023/06/25 10:15:04;;;;;;;2.58;1.60;;;;;;;;;;5049075;28;20156;-66
2023/06/25 10:17:31;;;;;;;3.28;1.50;;;;;;;;;;5049199;28;20071;-65
2023/06/25 10:19:58;;;;;;;1.83;1.30;;;;;;;;;;5049186;28;20029;-65
2023/06/25 10:22:25;;;;;;;3.17;1.70;;;;;;;;;;5049107;28;20023;-65
2023/06/25 10:24:53;;;;;;;2.88;1.40;;;;;;;;;;5049251;28;20845;-66
2023/06/25 10:27:30;;;;;;;2.75;1.35;;;;;;;;;;5049554;28;20029;-66
2023/06/25 10:29:56;;;;;;;3.10;1.50;;;;;;;;;;5049057;28;20362;-67
2023/06/25 10:32:25;;;;;;;3.22;1.52;;;;;;;;;;5048935;28;20049;-65
2023/06/25 10:34:55;;;;;;;2.42;1.50;;;;;;;;;;5048808;28;20148;-65
2023/06/25 10:37:21;;;;;;;2.50;1.42;;;;;;;;;;5049292;28;20479;-65
2023/06/25 10:39:47;;;;;;;3.58;1.58;;;;;;;;;;5048916;28;20045;-71
2023/06/25 10:42:13;;;;;;;2.15;1.33;;;;;;;;;;5049063;28;20574;-68
2023/06/25 10:44:39;;;;;;;2.30;1.60;;;;;;;;;;5049027;28;20037;-69
2023/06/25 10:47:06;;;;;;;4.25;1.58;;;;;;;;;;5049069;28;20139;-65
2023/06/25 10:49:33;;;;;;;2.60;1.65;;;;;;;;;;5048934;28;20029;-72
2023/06/25 10:51:59;;;;;;;3.33;1.67;;;;;;;;;;5048660;28;20118;-68
2023/06/25 10:54:25;;;;;;;2.22;1.23;;;;;;;;;;5048796;28;20114;-69
2023/06/25 10:56:54;;;;;;;2.80;1.73;;;;;;;;;;5040759;28;20114;-67
2023/06/25 10:59:23;;;;;;;3.30;1.50;;;;;;;;;;5045311;28;20038;-65
2023/06/25 11:01:50;;;;;;;2.78;1.40;;;;;;;;;;5042641;28;20037;-66
2023/06/25 11:04:15;;;;;;;3.28;1.88;;;;;;;;;;5048623;28;20037;-66
2023/06/25 11:06:41;;;;;;;1.85;1.40;;;;;;;;;;5048470;28;20657;-65
2023/06/25 11:09:06;;;;;;;3.35;1.38;;;;;;;;;;5030440;28;20516;-66
2023/06/25 11:11:32;;;;;;;2.42;1.45;;;;;;;;;;5028537;28;20397;-68
2023/06/25 11:13:57;;;;;;;3.13;1.52;;;;;;;;;;5047399;28;20029;-65
2023/06/25 11:16:23;;;;;;;3.20;1.48;;;;;;;;;;5048571;28;20021;-65
2023/06/25 11:18:51;;;;;;;3.00;1.38;;;;;;;;;;5048361;28;20033;-65
2023/06/25 11:21:16;;;;;;;2.33;1.33;;;;;;;;;;5046862;28;20029;-64
2023/06/25 11:23:43;;;;;;;2.72;1.60;;;;;;;;;;5048638;28;20033;-64
2023/06/25 11:26:12;;;;;;;2.20;1.23;;;;;;;;;;5052155;28;20124;-66
2023/06/25 11:28:38;;;;;;;2.85;1.48;;;;;;;;;;5052256;28;20111;-67
2023/06/25 11:31:03;;;;;;;2.53;1.60;;;;;;;;;;5051847;28;20108;-66
2023/06/25 11:33:29;;;;;;;2.67;1.50;;;;;;;;;;5052157;28;20056;-66
2023/06/25 11:36:12;;;;;;;3.10;1.40;;;;;;;;;;5052321;28;20061;-71
2023/06/25 11:38:43;;;;;;;1.98;1.38;;;;;;;;;;5052426;28;20029;-66
2023/06/25 11:41:08;;;;;;;3.00;1.30;;;;;;;;;;5051909;28;20029;-65
2023/06/25 11:43:34;;;;;;;1.83;1.27;;;;;;;;;;5052059;28;20067;-65
2023/06/25 11:46:01;;;;;;;2.90;1.45;;;;;;;;;;5051800;28;20565;-66
2023/06/25 11:48:28;;;;;;;3.13;1.70;;;;;;;;;;5052351;28;20021;-66
2023/06/25 11:51:02;;;;;;;2.78;1.67;;;;;;;;;;5038105;28;20500;-65
2023/06/25 11:53:27;;;;;;;2.47;1.50;;;;;;;;;;5046821;28;20025;-72
2023/06/25 11:55:52;;;;;;;2.10;1.40;;;;;;;;;;5031999;28;20018;-66
2023/06/25 11:58:18;;;;;;;1.90;1.40;;;;;;;;;;5042192;28;20085;-65
2023/06/25 12:00:43;;;;;;;2.67;1.30;;;;;;;;;;5062546;28;20029;-73
2023/06/25 12:03:09;;;;;;;3.25;1.60;;;;;;;;;;5067260;28;20453;-69
2023/06/25 12:05:34;;;;;;;2.33;1.45;;;;;;;;;;5066397;28;20032;-66
2023/06/25 12:07:59;;;;;;;2.15;1.30;;;;;;;;;;5060597;28;20035;-66
2023/06/25 12:10:25;;;;;;;2.30;1.58;;;;;;;;;;5072582;28;20525;-79
2023/06/25 12:12:52;;;;;;;2.13;1.33;;;;;;;;;;5071334;28;20399;-76
2023/06/25 12:15:18;;;;;;;2.70;1.50;;;;;;;;;;5071599;28;20113;-68
2023/06/25 12:17:44;;;;;;;2.17;1.40;;;;;;;;;;5072265;28;20041;-69
2023/06/25 12:20:09;;;;;;;2.70;1.50;;;;;;;;;;5071689;28;20117;-66
2023/06/25 12:22:34;;;;;;;3.05;1.70;;;;;;;;;;5069717;28;20502;-64
2023/06/25 12:25:00;;;;;;;1.92;1.20;;;;;;;;;;5062979;28;20626;-65
2023/06/25 12:27:25;;;;;;;2.35;1.48;;;;;;;;;;5073417;28;20024;-66
2023/06/25 12:29:50;;;;;;;3.63;1.80;;;;;;;;;;5071793;28;20028;-65
2023/06/25 12:32:16;;;;;;;2.10;1.38;;;;;;;;;;5072374;28;20131;-66
2023/06/25 12:34:41;;;;;;;2.78;1.50;;;;;;;;;;5082065;28;20034;-69
2023/06/25 12:37:07;;;;;;;2.35;1.30;;;;;;;;;;5079488;28;20024;-70
2023/06/25 12:39:32;;;;;;;2.08;1.35;;;;;;;;;;5074217;28;20528;-68
2023/06/25 12:41:57;;;;;;;3.08;1.85;;;;;;;;;;5057524;28;20017;-74
2023/06/25 12:44:23;;;;;;;2.50;1.65;;;;;;;;;;5059766;28;20036;-64
2023/06/25 12:46:48;;;;;;;2.63;1.63;;;;;;;;;;5066005;28;20040;-68
2023/06/25 12:49:14;;;;;;;2.45;1.48;;;;;;;;;;5072721;28;20391;-72
2023/06/25 12:51:39;;;;;;;2.83;1.30;;;;;;;;;;5063073;28;20021;-65
2023/06/25 12:54:05;;;;;;;2.20;1.50;;;;;;;;;;5073660;28;20024;-64
2023/06/25 12:56:31;;;;;;;2.58;1.50;;;;;;;;;;5063818;28;20030;-65
2023/06/25 12:58:56;;;;;;;1.58;1.10;;;;;;;;;;5033993;28;20091;-65
2023/06/25 13:01:22;;;;;;;2.80;1.60;;;;;;;;;;5030764;28;20037;-65
2023/06/25 13:03:47;;;;;;;3.15;1.52;;;;;;;;;;5030902;28;20120;-65
2023/06/25 13:06:14;;;;;;;2.00;1.40;;;;;;;;;;5029703;28;20033;-66
2023/06/25 13:08:39;;;;;;;2.00;1.20;;;;;;;;;;5030605;28;20033;-71
2023/06/25 13:11:05;;;;;;;2.60;1.60;;;;;;;;;;5037476;28;20527;-67
2023/06/25 13:13:30;;;;;;;2.53;1.60;;;;;;;;;;5041168;28;20040;-67
2023/06/25 13:15:56;;;;;;;1.98;1.30;;;;;;;;;;5041143;28;20092;-66
2023/06/25 13:18:21;;;;;;;2.97;1.60;;;;;;;;;;5032262;28;20596;-67
2023/06/25 13:20:46;;;;;;;3.30;1.42;;;;;;;;;;5037423;28;20032;-66
2023/06/25 13:23:12;;;;;;;2.45;1.58;;;;;;;;;;5030263;28;20043;-67
2023/06/25 13:25:38;;;;;;;2.75;1.38;;;;;;;;;;5030688;28;20044;-68
2023/06/25 13:28:05;;;;;;;2.08;1.33;;;;;;;;;;5030384;28;20025;-73
2023/06/25 13:30:32;;;;;;;1.67;1.08;;;;;;;;;;5030492;28;20030;-72
2023/06/25 13:32:58;;;;;;;2.97;1.65;;;;;;;;;;5030746;28;20437;-66
2023/06/25 13:35:24;;;;;;;4.70;1.42;;;;;;;;;;5034485;28;20021;-74
2023/06/25 13:37:49;;;;;;;2.03;1.42;;;;;;;;;;5030030;28;20071;-66
2023/06/25 13:40:14;;;;;;;2.60;1.40;;;;;;;;;;5030544;28;20385;-69
2023/06/25 13:42:40;;;;;;;2.53;1.35;;;;;;;;;;5029879;28;20026;-66
2023/06/25 13:45:06;;;;;;;4.90;1.50;;;;;;;;;;5030255;28;20032;-70
2023/06/25 13:47:31;;;;;;;5.00;1.80;;;;;;;;;;5029408;28;20061;-67
2023/06/25 13:49:56;;;;;;;2.30;1.50;;;;;;;;;;5029752;28;20034;-69
2023/06/25 13:52:22;;;;;;;2.38;1.50;;;;;;;;;;5029365;28;20094;-67
2023/06/25 13:54:47;;;;;;;3.10;1.35;;;;;;;;;;5030003;28;20534;-74
2023/06/25 13:57:12;;;;;;;2.55;1.60;;;;;;;;;;5029903;28;20109;-71
2023/06/25 13:59:38;;;;;;;2.63;1.38;;;;;;;;;;5029995;28;20619;-66
2023/06/25 14:02:03;;;;;;;3.65;1.50;;;;;;;;;;5029747;28;20041;-65
2023/06/25 14:04:29;;;;;;;3.40;1.30;;;;;;;;;;5029801;28;20029;-66
2023/06/25 14:06:54;;;;;;;2.60;1.40;;;;;;;;;;5029342;28;20417;-66
2023/06/25 14:09:20;;;;;;;2.60;1.63;;;;;;;;;;5028864;28;20401;-67
2023/06/25 14:11:45;;;;;;;2.42;1.40;;;;;;;;;;5029201;28;20032;-67
2023/06/25 14:14:10;;;;;;;3.22;1.75;;;;;;;;;;5031872;28;20033;-71
2023/06/25 14:16:36;;;;;;;3.45;1.70;;;;;;;;;;5030457;28;20033;-67
2023/06/25 14:19:01;;;;;;;2.70;1.75;;;;;;;;;;5029545;28;20267;-66
2023/06/25 14:21:27;;;;;;;2.53;1.55;;;;;;;;;;5035072;28;20036;-72
2023/06/25 14:23:53;;;;;;;2.45;1.35;;;;;;;;;;5039018;28;20034;-66
2023/06/25 14:26:19;;;;;;;3.17;1.42;;;;;;;;;;5029991;28;20021;-64
2023/06/25 14:28:45;;;;;;;2.38;1.40;;;;;;;;;;5030288;28;20311;-64
2023/06/25 14:31:11;;;;;;;2.28;1.45;;;;;;;;;;5035362;28;20033;-70
2023/06/25 14:33:36;;;;;;;2.15;1.30;;;;;;;;;;5030793;28;20079;-65
2023/06/25 14:36:01;;;;;;;2.40;1.50;;;;;;;;;;5029568;28;20022;-68